sensor_id;sensor_type;location;lat;lon;timestamp;pressure;altitude;pressure_sealevel;temperature;humidity
4024;BME280;2026;51.002;13.668;2022-08-19T00:01:08;98318.06;;;20.55;70.09
4024;BME280;2026;51.002;13.668;2022-08-19T00:06:11;98315.25;;;20.60;69.84
4024;BME280;2026;51.002;13.668;2022-08-19T00:11:17;98318.97;;;20.41;70.98
4024;BME280;2026;51.002;13.668;2022-08-19T00:16:28;98324.16;;;20.37;70.69
4024;BME280;2026;51.002;13.668;2022-08-19T00:21:31;98321.97;;;20.48;70.72
4024;BME280;2026;51.002;13.668;2022-08-19T00:26:35;98337.69;;;20.50;70.83
4024;BME280;2026;51.002;13.668;2022-08-19T00:31:40;98340.19;;;20.37;71.36
4024;BME280;2026;51.002;13.668;2022-08-19T00:36:45;98350.22;;;20.09;72.78
4024;BME280;2026;51.002;13.668;2022-08-19T00:41:49;98342.63;;;20.25;72.10
4024;BME280;2026;51.002;13.668;2022-08-19T00:46:55;98342.88;;;20.15;72.62
4024;BME280;2026;51.002;13.668;2022-08-19T00:52:04;98346.41;;;20.01;74.34
4024;BME280;2026;51.002;13.668;2022-08-19T00:57:12;98335.13;;;20.04;74.16
4024;BME280;2026;51.002;13.668;2022-08-19T01:02:19;98336.97;;;19.95;74.49
4024;BME280;2026;51.002;13.668;2022-08-19T01:07:23;98333.34;;;19.91;74.69
4024;BME280;2026;51.002;13.668;2022-08-19T01:12:28;98334.53;;;19.85;75.33
4024;BME280;2026;51.002;13.668;2022-08-19T01:17:34;98343.31;;;19.85;75.15
4024;BME280;2026;51.002;13.668;2022-08-19T01:22:44;98366.31;;;19.95;75.03
4024;BME280;2026;51.002;13.668;2022-08-19T01:27:49;98357.22;;;19.96;74.99
4024;BME280;2026;51.002;13.668;2022-08-19T01:32:54;98362.38;;;19.92;75.35
4024;BME280;2026;51.002;13.668;2022-08-19T01:38:02;98347.72;;;19.67;76.20
4024;BME280;2026;51.002;13.668;2022-08-19T01:43:10;98335.53;;;19.75;76.33
4024;BME280;2026;51.002;13.668;2022-08-19T01:48:13;98344.16;;;19.72;76.45
4024;BME280;2026;51.002;13.668;2022-08-19T01:53:18;98353.69;;;19.87;75.58
4024;BME280;2026;51.002;13.668;2022-08-19T01:58:29;98361.03;;;19.81;76.00
4024;BME280;2026;51.002;13.668;2022-08-19T02:03:34;98342.44;;;19.76;76.16
4024;BME280;2026;51.002;13.668;2022-08-19T02:08:39;98334.22;;;19.86;75.87
4024;BME280;2026;51.002;13.668;2022-08-19T02:13:42;98304.06;;;19.40;78.29
4024;BME280;2026;51.002;13.668;2022-08-19T02:18:46;98326.38;;;19.67;77.17
4024;BME280;2026;51.002;13.668;2022-08-19T02:23:51;98354.59;;;19.82;76.30
4024;BME280;2026;51.002;13.668;2022-08-19T02:28:55;98361.41;;;19.88;76.33
4024;BME280;2026;51.002;13.668;2022-08-19T02:34:00;98359.06;;;19.73;76.91
4024;BME280;2026;51.002;13.668;2022-08-19T02:39:05;98349.75;;;19.84;76.69
4024;BME280;2026;51.002;13.668;2022-08-19T02:44:08;98344.41;;;19.84;76.61
4024;BME280;2026;51.002;13.668;2022-08-19T02:49:31;98341.81;;;19.93;76.51
4024;BME280;2026;51.002;13.668;2022-08-19T02:54:37;98339.69;;;19.81;77.16
4024;BME280;2026;51.002;13.668;2022-08-19T02:59:40;98349.19;;;19.73;77.36
4024;BME280;2026;51.002;13.668;2022-08-19T03:04:43;98347.00;;;19.75;77.15
4024;BME280;2026;51.002;13.668;2022-08-19T03:09:47;98350.03;;;19.23;79.75
4024;BME280;2026;51.002;13.668;2022-08-19T03:14:50;98345.97;;;19.25;79.43
4024;BME280;2026;51.002;13.668;2022-08-19T03:19:54;98354.25;;;19.24;79.55
4024;BME280;2026;51.002;13.668;2022-08-19T03:24:59;98356.47;;;19.08;80.27
4024;BME280;2026;51.002;13.668;2022-08-19T03:30:03;98361.25;;;19.48;78.64
4024;BME280;2026;51.002;13.668;2022-08-19T03:35:07;98365.25;;;19.59;78.34
4024;BME280;2026;51.002;13.668;2022-08-19T03:40:12;98356.19;;;19.83;77.14
4024;BME280;2026;51.002;13.668;2022-08-19T03:45:17;98363.25;;;19.65;77.33
4024;BME280;2026;51.002;13.668;2022-08-19T03:50:21;98355.25;;;19.65;77.56
4024;BME280;2026;51.002;13.668;2022-08-19T03:55:25;98371.22;;;19.79;76.99
4024;BME280;2026;51.002;13.668;2022-08-19T04:00:28;98370.66;;;19.68;77.61
4024;BME280;2026;51.002;13.668;2022-08-19T04:05:31;98361.03;;;19.81;76.74
4024;BME280;2026;51.002;13.668;2022-08-19T04:10:36;98363.00;;;19.52;78.11
4024;BME280;2026;51.002;13.668;2022-08-19T04:15:40;98353.25;;;19.71;77.20
4024;BME280;2026;51.002;13.668;2022-08-19T04:20:47;98344.53;;;19.79;76.74
4024;BME280;2026;51.002;13.668;2022-08-19T04:25:52;98350.81;;;19.60;77.46
4024;BME280;2026;51.002;13.668;2022-08-19T04:30:55;98360.72;;;19.46;78.34
4024;BME280;2026;51.002;13.668;2022-08-19T04:35:59;98350.09;;;19.68;77.17
4024;BME280;2026;51.002;13.668;2022-08-19T04:41:03;98358.28;;;19.72;77.29
4024;BME280;2026;51.002;13.668;2022-08-19T04:46:24;98370.03;;;19.71;76.93
4024;BME280;2026;51.002;13.668;2022-08-19T04:51:42;98375.66;;;19.84;76.53
4024;BME280;2026;51.002;13.668;2022-08-19T04:56:47;98367.44;;;19.80;76.60
4024;BME280;2026;51.002;13.668;2022-08-19T05:01:51;98362.00;;;19.85;76.56
4024;BME280;2026;51.002;13.668;2022-08-19T05:06:54;98370.13;;;19.80;76.71
4024;BME280;2026;51.002;13.668;2022-08-19T05:12:03;98374.53;;;19.62;77.84
4024;BME280;2026;51.002;13.668;2022-08-19T05:17:07;98386.69;;;19.54;77.73
4024;BME280;2026;51.002;13.668;2022-08-19T05:22:30;98409.13;;;19.53;77.62
4024;BME280;2026;51.002;13.668;2022-08-19T05:27:38;98406.34;;;19.58;77.41
4024;BME280;2026;51.002;13.668;2022-08-19T05:32:42;98412.50;;;19.45;78.21
4024;BME280;2026;51.002;13.668;2022-08-19T05:37:45;98422.44;;;19.53;77.57
4024;BME280;2026;51.002;13.668;2022-08-19T05:42:50;98436.56;;;19.67;77.23
4024;BME280;2026;51.002;13.668;2022-08-19T05:47:56;98448.94;;;19.63;76.90
4024;BME280;2026;51.002;13.668;2022-08-19T05:52:59;98461.75;;;19.61;76.82
4024;BME280;2026;51.002;13.668;2022-08-19T05:58:04;98475.78;;;19.53;77.05
4024;BME280;2026;51.002;13.668;2022-08-19T06:03:09;98482.22;;;19.52;76.69
4024;BME280;2026;51.002;13.668;2022-08-19T06:08:14;98498.44;;;19.41;76.87
4024;BME280;2026;51.002;13.668;2022-08-19T06:13:22;98510.47;;;19.53;76.58
4024;BME280;2026;51.002;13.668;2022-08-19T06:18:33;98526.09;;;19.60;76.38
4024;BME280;2026;51.002;13.668;2022-08-19T06:23:36;98534.97;;;19.69;75.63
4024;BME280;2026;51.002;13.668;2022-08-19T06:28:42;98540.00;;;19.71;75.58
4024;BME280;2026;51.002;13.668;2022-08-19T06:33:48;98537.72;;;19.64;75.59
4024;BME280;2026;51.002;13.668;2022-08-19T06:38:52;98539.00;;;19.66;75.31
4024;BME280;2026;51.002;13.668;2022-08-19T06:43:57;98551.66;;;19.75;75.28
4024;BME280;2026;51.002;13.668;2022-08-19T06:49:01;98550.97;;;19.83;75.04
4024;BME280;2026;51.002;13.668;2022-08-19T06:54:06;98562.13;;;19.71;75.57
4024;BME280;2026;51.002;13.668;2022-08-19T06:59:23;98572.72;;;19.76;76.32
4024;BME280;2026;51.002;13.668;2022-08-19T07:04:30;98583.19;;;19.87;76.26
4024;BME280;2026;51.002;13.668;2022-08-19T07:09:34;98555.13;;;19.61;78.32
4024;BME280;2026;51.002;13.668;2022-08-19T07:14:41;98542.47;;;19.53;79.32
4024;BME280;2026;51.002;13.668;2022-08-19T07:19:44;98557.78;;;19.61;79.24
4024;BME280;2026;51.002;13.668;2022-08-19T07:24:48;98574.88;;;19.74;78.87
4024;BME280;2026;51.002;13.668;2022-08-19T07:29:53;98572.59;;;19.67;78.68
4024;BME280;2026;51.002;13.668;2022-08-19T07:35:00;98582.59;;;19.62;79.07
4024;BME280;2026;51.002;13.668;2022-08-19T07:40:06;98595.66;;;19.63;79.06
4024;BME280;2026;51.002;13.668;2022-08-19T07:45:11;98590.78;;;19.65;79.17
4024;BME280;2026;51.002;13.668;2022-08-19T07:50:14;98581.72;;;19.52;80.69
4024;BME280;2026;51.002;13.668;2022-08-19T07:55:22;98579.25;;;19.56;79.88
4024;BME280;2026;51.002;13.668;2022-08-19T08:00:47;98587.53;;;19.40;80.61
4024;BME280;2026;51.002;13.668;2022-08-19T08:05:50;98597.09;;;19.41;80.61
4024;BME280;2026;51.002;13.668;2022-08-19T08:11:22;98596.41;;;19.50;80.51
4024;BME280;2026;51.002;13.668;2022-08-19T08:16:34;98602.34;;;19.61;80.12
4024;BME280;2026;51.002;13.668;2022-08-19T08:21:48;98603.13;;;19.61;80.16
4024;BME280;2026;51.002;13.668;2022-08-19T08:26:51;98615.59;;;19.66;79.25
4024;BME280;2026;51.002;13.668;2022-08-19T08:31:59;98612.06;;;19.85;78.52
4024;BME280;2026;51.002;13.668;2022-08-19T08:37:03;98601.59;;;19.88;78.35
4024;BME280;2026;51.002;13.668;2022-08-19T08:42:09;98630.63;;;19.90;78.39
4024;BME280;2026;51.002;13.668;2022-08-19T08:47:21;98620.16;;;19.93;77.51
4024;BME280;2026;51.002;13.668;2022-08-19T08:52:26;98627.47;;;19.74;78.89
4024;BME280;2026;51.002;13.668;2022-08-19T08:57:36;98623.91;;;19.64;79.79
4024;BME280;2026;51.002;13.668;2022-08-19T09:02:44;98628.69;;;19.95;79.06
4024;BME280;2026;51.002;13.668;2022-08-19T09:07:58;98629.75;;;20.08;78.71
4024;BME280;2026;51.002;13.668;2022-08-19T09:13:09;98638.75;;;19.99;78.23
4024;BME280;2026;51.002;13.668;2022-08-19T09:18:16;98643.69;;;20.19;77.73
4024;BME280;2026;51.002;13.668;2022-08-19T09:23:20;98625.94;;;20.60;76.80
4024;BME280;2026;51.002;13.668;2022-08-19T09:28:27;98623.28;;;20.97;75.83
4024;BME280;2026;51.002;13.668;2022-08-19T09:33:34;98608.47;;;21.23;74.38
4024;BME280;2026;51.002;13.668;2022-08-19T09:38:39;98604.50;;;21.43;73.43
4024;BME280;2026;51.002;13.668;2022-08-19T09:43:47;98598.66;;;21.81;72.43
4024;BME280;2026;51.002;13.668;2022-08-19T09:48:53;98599.41;;;21.64;71.59
4024;BME280;2026;51.002;13.668;2022-08-19T09:53:59;98604.78;;;21.41;72.63
4024;BME280;2026;51.002;13.668;2022-08-19T09:59:05;98617.00;;;21.33;73.53
4024;BME280;2026;51.002;13.668;2022-08-19T10:04:10;98617.78;;;21.57;71.81
4024;BME280;2026;51.002;13.668;2022-08-19T10:09:20;98601.75;;;21.57;72.69
4024;BME280;2026;51.002;13.668;2022-08-19T10:14:35;98595.41;;;22.20;70.11
4024;BME280;2026;51.002;13.668;2022-08-19T10:19:41;98609.34;;;22.39;69.95
4024;BME280;2026;51.002;13.668;2022-08-19T10:24:55;98636.84;;;22.05;69.87
4024;BME280;2026;51.002;13.668;2022-08-19T10:29:59;98639.84;;;21.63;71.45
4024;BME280;2026;51.002;13.668;2022-08-19T10:35:05;98642.81;;;21.52;72.11
4024;BME280;2026;51.002;13.668;2022-08-19T10:40:10;98627.31;;;21.81;70.95
4024;BME280;2026;51.002;13.668;2022-08-19T10:45:13;98629.91;;;22.04;69.32
4024;BME280;2026;51.002;13.668;2022-08-19T10:50:18;98636.13;;;22.39;68.36
4024;BME280;2026;51.002;13.668;2022-08-19T10:55:39;98647.78;;;22.96;66.73
4024;BME280;2026;51.002;13.668;2022-08-19T11:01:00;98652.38;;;22.69;67.23
4024;BME280;2026;51.002;13.668;2022-08-19T11:06:07;98655.03;;;23.05;65.52
4024;BME280;2026;51.002;13.668;2022-08-19T11:11:10;98664.84;;;21.98;68.74
4024;BME280;2026;51.002;13.668;2022-08-19T11:16:17;98659.44;;;22.30;67.69
4024;BME280;2026;51.002;13.668;2022-08-19T11:21:23;98665.94;;;22.73;66.68
4024;BME280;2026;51.002;13.668;2022-08-19T11:26:28;98658.63;;;23.35;63.61
4024;BME280;2026;51.002;13.668;2022-08-19T11:31:34;98674.66;;;23.62;63.43
4024;BME280;2026;51.002;13.668;2022-08-19T11:36:42;98664.75;;;23.36;64.04
4024;BME280;2026;51.002;13.668;2022-08-19T11:41:46;98662.69;;;23.50;63.08
4024;BME280;2026;51.002;13.668;2022-08-19T11:46:51;98658.03;;;22.94;64.77
4024;BME280;2026;51.002;13.668;2022-08-19T11:51:55;98671.03;;;22.17;67.22
4024;BME280;2026;51.002;13.668;2022-08-19T11:57:01;98667.13;;;22.23;67.28
4024;BME280;2026;51.002;13.668;2022-08-19T12:02:05;98667.97;;;22.67;65.95
4024;BME280;2026;51.002;13.668;2022-08-19T12:07:10;98678.22;;;22.65;65.21
4024;BME280;2026;51.002;13.668;2022-08-19T12:12:13;98690.03;;;22.29;66.92
4024;BME280;2026;51.002;13.668;2022-08-19T12:17:17;98692.78;;;21.43;69.61
4024;BME280;2026;51.002;13.668;2022-08-19T12:22:22;98688.47;;;21.33;70.25
4024;BME280;2026;51.002;13.668;2022-08-19T12:27:25;98698.19;;;21.52;69.11
4024;BME280;2026;51.002;13.668;2022-08-19T12:32:42;98704.66;;;21.82;68.32
4024;BME280;2026;51.002;13.668;2022-08-19T12:37:47;98703.59;;;21.38;69.86
4024;BME280;2026;51.002;13.668;2022-08-19T12:42:58;98708.22;;;21.23;70.24
4024;BME280;2026;51.002;13.668;2022-08-19T12:48:02;98714.13;;;21.11;70.98
4024;BME280;2026;51.002;13.668;2022-08-19T12:53:27;98710.97;;;21.55;68.94
4024;BME280;2026;51.002;13.668;2022-08-19T12:58:30;98698.38;;;21.10;70.14
4024;BME280;2026;51.002;13.668;2022-08-19T13:03:36;98702.97;;;21.18;69.96
4024;BME280;2026;51.002;13.668;2022-08-19T13:08:42;98705.53;;;21.46;68.37
4024;BME280;2026;51.002;13.668;2022-08-19T13:13:48;98700.22;;;20.49;72.27
4024;BME280;2026;51.002;13.668;2022-08-19T13:18:53;98707.53;;;20.30;73.17
4024;BME280;2026;51.002;13.668;2022-08-19T13:23:58;98700.69;;;20.51;72.59
4024;BME280;2026;51.002;13.668;2022-08-19T13:29:02;98703.22;;;20.85;71.27
4024;BME280;2026;51.002;13.668;2022-08-19T13:34:28;98699.72;;;20.98;70.93
4024;BME280;2026;51.002;13.668;2022-08-19T13:39:34;98701.19;;;20.54;72.77
4024;BME280;2026;51.002;13.668;2022-08-19T13:44:37;98710.06;;;20.63;72.73
4024;BME280;2026;51.002;13.668;2022-08-19T13:49:40;98699.16;;;20.87;72.06
4024;BME280;2026;51.002;13.668;2022-08-19T13:54:46;98701.59;;;20.33;74.30
4024;BME280;2026;51.002;13.668;2022-08-19T13:59:50;98702.56;;;20.51;73.63
4024;BME280;2026;51.002;13.668;2022-08-19T14:04:53;98720.28;;;20.61;73.33
4024;BME280;2026;51.002;13.668;2022-08-19T14:09:57;98713.81;;;20.90;72.47
4024;BME280;2026;51.002;13.668;2022-08-19T14:15:05;98703.41;;;21.11;71.25
4024;BME280;2026;51.002;13.668;2022-08-19T14:20:11;98711.88;;;21.27;70.39
4024;BME280;2026;51.002;13.668;2022-08-19T14:25:23;98710.34;;;21.12;71.22
4024;BME280;2026;51.002;13.668;2022-08-19T14:30:30;98707.59;;;21.26;69.97
4024;BME280;2026;51.002;13.668;2022-08-19T14:35:34;98704.81;;;21.31;69.92
4024;BME280;2026;51.002;13.668;2022-08-19T14:40:38;98707.84;;;21.39;69.15
4024;BME280;2026;51.002;13.668;2022-08-19T14:45:43;98709.78;;;21.24;69.25
4024;BME280;2026;51.002;13.668;2022-08-19T14:50:47;98722.19;;;20.18;73.30
4024;BME280;2026;51.002;13.668;2022-08-19T14:55:52;98727.41;;;20.23;73.36
4024;BME280;2026;51.002;13.668;2022-08-19T15:00:55;98718.97;;;20.58;72.02
4024;BME280;2026;51.002;13.668;2022-08-19T15:06:00;98706.38;;;21.10;70.32
4024;BME280;2026;51.002;13.668;2022-08-19T15:11:07;98714.22;;;21.06;69.93
4024;BME280;2026;51.002;13.668;2022-08-19T15:16:12;98715.03;;;21.29;69.13
4024;BME280;2026;51.002;13.668;2022-08-19T15:21:19;98715.88;;;21.39;68.69
4024;BME280;2026;51.002;13.668;2022-08-19T15:26:29;98722.88;;;21.49;68.15
4024;BME280;2026;51.002;13.668;2022-08-19T15:31:34;98721.41;;;21.42;68.19
4024;BME280;2026;51.002;13.668;2022-08-19T15:36:39;98707.97;;;21.33;68.07
4024;BME280;2026;51.002;13.668;2022-08-19T15:41:44;98697.75;;;20.90;69.55
4024;BME280;2026;51.002;13.668;2022-08-19T15:46:48;98691.00;;;20.70;70.92
4024;BME280;2026;51.002;13.668;2022-08-19T15:51:51;98676.16;;;20.49;70.91
4024;BME280;2026;51.002;13.668;2022-08-19T15:56:56;98679.22;;;20.43;71.41
4024;BME280;2026;51.002;13.668;2022-08-19T16:02:18;98671.88;;;20.62;70.35
4024;BME280;2026;51.002;13.668;2022-08-19T16:07:39;98690.91;;;20.33;71.14
4024;BME280;2026;51.002;13.668;2022-08-19T16:12:44;98698.22;;;20.69;70.72
4024;BME280;2026;51.002;13.668;2022-08-19T16:17:47;98703.78;;;20.31;71.98
4024;BME280;2026;51.002;13.668;2022-08-19T16:22:58;98702.25;;;20.81;70.10
4024;BME280;2026;51.002;13.668;2022-08-19T16:28:03;98702.72;;;20.83;69.76
4024;BME280;2026;51.002;13.668;2022-08-19T16:33:08;98688.84;;;20.30;71.32
4024;BME280;2026;51.002;13.668;2022-08-19T16:38:12;98679.81;;;20.54;70.48
4024;BME280;2026;51.002;13.668;2022-08-19T16:43:16;98669.94;;;20.40;70.74
4024;BME280;2026;51.002;13.668;2022-08-19T16:48:20;98664.41;;;20.36;70.74
4024;BME280;2026;51.002;13.668;2022-08-19T16:53:26;98655.03;;;20.25;70.56
4024;BME280;2026;51.002;13.668;2022-08-19T16:58:34;98670.19;;;20.16;71.16
4024;BME280;2026;51.002;13.668;2022-08-19T17:03:37;98658.66;;;20.43;71.02
4024;BME280;2026;51.002;13.668;2022-08-19T17:08:41;98661.63;;;20.42;70.85
4024;BME280;2026;51.002;13.668;2022-08-19T17:13:51;98672.66;;;20.12;71.75
4024;BME280;2026;51.002;13.668;2022-08-19T17:18:56;98686.19;;;20.30;71.35
4024;BME280;2026;51.002;13.668;2022-08-19T17:24:00;98682.84;;;20.10;72.13
4024;BME280;2026;51.002;13.668;2022-08-19T17:29:05;98686.66;;;19.76;73.23
4024;BME280;2026;51.002;13.668;2022-08-19T17:34:08;98694.06;;;19.79;72.59
4024;BME280;2026;51.002;13.668;2022-08-19T17:39:11;98678.88;;;19.93;72.17
4024;BME280;2026;51.002;13.668;2022-08-19T17:44:16;98683.22;;;19.89;72.69
4024;BME280;2026;51.002;13.668;2022-08-19T17:49:19;98688.19;;;20.10;71.77
4024;BME280;2026;51.002;13.668;2022-08-19T17:54:22;98714.06;;;20.23;71.49
4024;BME280;2026;51.002;13.668;2022-08-19T17:59:36;98729.00;;;20.24;71.54
4024;BME280;2026;51.002;13.668;2022-08-19T18:04:39;98731.09;;;20.28;71.08
4024;BME280;2026;51.002;13.668;2022-08-19T18:09:49;98741.38;;;20.20;71.44
4024;BME280;2026;51.002;13.668;2022-08-19T18:14:56;98764.91;;;20.18;71.58
4024;BME280;2026;51.002;13.668;2022-08-19T18:19:59;98781.34;;;20.26;71.09
4024;BME280;2026;51.002;13.668;2022-08-19T18:25:05;98809.19;;;20.05;72.01
4024;BME280;2026;51.002;13.668;2022-08-19T18:30:11;98801.56;;;19.99;72.37
4024;BME280;2026;51.002;13.668;2022-08-19T18:35:17;98814.31;;;20.02;72.39
4024;BME280;2026;51.002;13.668;2022-08-19T18:40:23;98799.69;;;19.99;72.50
4024;BME280;2026;51.002;13.668;2022-08-19T18:45:45;98791.78;;;19.94;72.86
4024;BME280;2026;51.002;13.668;2022-08-19T18:51:08;98780.97;;;19.85;72.89
4024;BME280;2026;51.002;13.668;2022-08-19T18:56:14;98782.56;;;19.67;73.53
4024;BME280;2026;51.002;13.668;2022-08-19T19:01:21;98787.88;;;19.86;72.98
4024;BME280;2026;51.002;13.668;2022-08-19T19:06:31;98785.22;;;19.86;73.04
4024;BME280;2026;51.002;13.668;2022-08-19T19:11:39;98783.06;;;19.88;72.73
4024;BME280;2026;51.002;13.668;2022-08-19T19:16:46;98781.03;;;19.80;72.82
4024;BME280;2026;51.002;13.668;2022-08-19T19:21:49;98779.25;;;19.75;72.73
4024;BME280;2026;51.002;13.668;2022-08-19T19:26:54;98776.88;;;19.74;72.20
4024;BME280;2026;51.002;13.668;2022-08-19T19:31:59;98776.16;;;19.87;71.99
4024;BME280;2026;51.002;13.668;2022-08-19T19:37:02;98777.22;;;19.86;71.85
4024;BME280;2026;51.002;13.668;2022-08-19T19:42:06;98787.75;;;19.77;71.90
4024;BME280;2026;51.002;13.668;2022-08-19T19:47:22;98794.03;;;19.67;71.86
4024;BME280;2026;51.002;13.668;2022-08-19T19:52:26;98783.63;;;19.52;72.51
4024;BME280;2026;51.002;13.668;2022-08-19T19:57:29;98768.88;;;19.40;72.84
4024;BME280;2026;51.002;13.668;2022-08-19T20:02:34;98768.69;;;19.51;72.61
4024;BME280;2026;51.002;13.668;2022-08-19T20:07:37;98759.34;;;19.53;72.33
4024;BME280;2026;51.002;13.668;2022-08-19T20:12:54;98764.75;;;19.48;72.51
4024;BME280;2026;51.002;13.668;2022-08-19T20:17:59;98792.72;;;19.51;72.20
4024;BME280;2026;51.002;13.668;2022-08-19T20:23:03;98808.56;;;19.42;72.61
4024;BME280;2026;51.002;13.668;2022-08-19T20:28:07;98794.31;;;19.33;72.66
4024;BME280;2026;51.002;13.668;2022-08-19T20:33:14;98816.66;;;19.37;72.88
4024;BME280;2026;51.002;13.668;2022-08-19T20:38:17;98801.50;;;19.51;72.39
4024;BME280;2026;51.002;13.668;2022-08-19T20:43:20;98798.47;;;19.58;71.70
4024;BME280;2026;51.002;13.668;2022-08-19T20:48:25;98799.75;;;19.61;71.89
4024;BME280;2026;51.002;13.668;2022-08-19T20:53:28;98809.22;;;19.53;71.63
4024;BME280;2026;51.002;13.668;2022-08-19T20:58:32;98804.56;;;19.59;71.81
4024;BME280;2026;51.002;13.668;2022-08-19T21:03:39;98801.88;;;19.45;72.20
4024;BME280;2026;51.002;13.668;2022-08-19T21:08:44;98790.50;;;19.20;73.10
4024;BME280;2026;51.002;13.668;2022-08-19T21:13:49;98804.19;;;19.32;72.48
4024;BME280;2026;51.002;13.668;2022-08-19T21:18:54;98794.44;;;19.41;72.37
4024;BME280;2026;51.002;13.668;2022-08-19T21:23:57;98796.81;;;19.43;72.15
4024;BME280;2026;51.002;13.668;2022-08-19T21:29:00;98797.53;;;19.49;71.81
4024;BME280;2026;51.002;13.668;2022-08-19T21:34:05;98814.97;;;19.60;71.77
4024;BME280;2026;51.002;13.668;2022-08-19T21:39:08;98806.03;;;19.51;72.12
4024;BME280;2026;51.002;13.668;2022-08-19T21:44:11;98803.22;;;19.42;72.42
4024;BME280;2026;51.002;13.668;2022-08-19T21:49:16;98791.69;;;19.47;72.05
4024;BME280;2026;51.002;13.668;2022-08-19T21:54:20;98798.09;;;19.46;72.12
4024;BME280;2026;51.002;13.668;2022-08-19T21:59:23;98794.03;;;19.34;72.42
4024;BME280;2026;51.002;13.668;2022-08-19T22:04:28;98791.84;;;19.36;72.44
4024;BME280;2026;51.002;13.668;2022-08-19T22:09:31;98785.66;;;19.41;72.57
4024;BME280;2026;51.002;13.668;2022-08-19T22:14:34;98784.78;;;19.26;73.11
4024;BME280;2026;51.002;13.668;2022-08-19T22:19:39;98804.09;;;19.37;72.43
4024;BME280;2026;51.002;13.668;2022-08-19T22:24:42;98799.06;;;19.36;72.48
4024;BME280;2026;51.002;13.668;2022-08-19T22:29:45;98797.63;;;19.44;72.54
4024;BME280;2026;51.002;13.668;2022-08-19T22:34:56;98790.34;;;19.30;72.98
4024;BME280;2026;51.002;13.668;2022-08-19T22:39:59;98795.81;;;19.39;72.74
4024;BME280;2026;51.002;13.668;2022-08-19T22:45:08;98802.03;;;19.34;72.66
4024;BME280;2026;51.002;13.668;2022-08-19T22:50:13;98802.03;;;19.34;72.65
4024;BME280;2026;51.002;13.668;2022-08-19T22:55:16;98814.88;;;19.32;72.60
4024;BME280;2026;51.002;13.668;2022-08-19T23:00:21;98811.88;;;19.34;72.68
4024;BME280;2026;51.002;13.668;2022-08-19T23:05:27;98805.34;;;19.26;72.93
4024;BME280;2026;51.002;13.668;2022-08-19T23:10:32;98802.69;;;19.26;73.07
4024;BME280;2026;51.002;13.668;2022-08-19T23:15:35;98792.00;;;19.26;72.98
4024;BME280;2026;51.002;13.668;2022-08-19T23:20:41;98788.69;;;19.15;73.45
4024;BME280;2026;51.002;13.668;2022-08-19T23:25:45;98787.25;;;19.23;73.17
4024;BME280;2026;51.002;13.668;2022-08-19T23:30:50;98782.66;;;19.28;73.01
4024;BME280;2026;51.002;13.668;2022-08-19T23:35:57;98778.47;;;19.22;73.41
4024;BME280;2026;51.002;13.668;2022-08-19T23:41:02;98786.16;;;19.24;73.58
4024;BME280;2026;51.002;13.668;2022-08-19T23:46:07;98778.69;;;19.26;73.22
4024;BME280;2026;51.002;13.668;2022-08-19T23:51:14;98775.88;;;19.17;74.10
4024;BME280;2026;51.002;13.668;2022-08-19T23:56:18;98782.00;;;19.18;74.24
